sensor_id;sensor_type;location;lat;lon;timestamp;pressure;altitude;pressure_sealevel;temperature;humidity
63916;BME280;50094;51.356;-0.196;2022-11-11T00:02:17;101610.12;;;24.54;35.38
63916;BME280;50094;51.356;-0.196;2022-11-11T00:04:44;101608.89;;;24.48;35.43
63916;BME280;50094;51.356;-0.196;2022-11-11T00:07:11;101617.59;;;24.45;35.51
63916;BME280;50094;51.356;-0.196;2022-11-11T00:09:39;101617.96;;;24.23;35.42
63916;BME280;50094;51.356;-0.196;2022-11-11T00:12:06;101620.79;;;24.25;35.42
63916;BME280;50094;51.356;-0.196;2022-11-11T00:14:34;101622.36;;;24.48;35.45
63916;BME280;50094;51.356;-0.196;2022-11-11T00:17:01;101621.61;;;24.45;35.44
63916;BME280;50094;51.356;-0.196;2022-11-11T00:19:28;101619.27;;;24.23;35.39
63916;BME280;50094;51.356;-0.196;2022-11-11T00:21:55;101624.73;;;24.24;35.40
63916;BME280;50094;51.356;-0.196;2022-11-11T00:24:23;101630.53;;;24.21;35.42
63916;BME280;50094;51.356;-0.196;2022-11-11T00:26:51;101636.04;;;24.54;35.32
63916;BME280;50094;51.356;-0.196;2022-11-11T00:29:19;101636.27;;;24.54;35.33
63916;BME280;50094;51.356;-0.196;2022-11-11T00:31:46;101632.69;;;24.52;35.37
63916;BME280;50094;51.356;-0.196;2022-11-11T00:34:14;101634.18;;;24.50;35.45
63916;BME280;50094;51.356;-0.196;2022-11-11T00:36:41;101630.29;;;24.21;35.39
63916;BME280;50094;51.356;-0.196;2022-11-11T00:39:09;101634.24;;;24.29;35.36
63916;BME280;50094;51.356;-0.196;2022-11-11T00:41:35;101632.39;;;24.30;35.35
63916;BME280;50094;51.356;-0.196;2022-11-11T00:44:03;101630.81;;;24.27;35.39
63916;BME280;50094;51.356;-0.196;2022-11-11T00:46:30;101633.38;;;24.60;35.40
63916;BME280;50094;51.356;-0.196;2022-11-11T00:48:57;101638.27;;;24.52;35.52
63916;BME280;50094;51.356;-0.196;2022-11-11T00:51:25;101642.13;;;24.57;35.42
63916;BME280;50094;51.356;-0.196;2022-11-11T00:53:53;101632.84;;;24.61;35.46
63916;BME280;50094;51.356;-0.196;2022-11-11T00:56:20;101631.75;;;24.64;35.46
63916;BME280;50094;51.356;-0.196;2022-11-11T00:58:48;101633.00;;;24.60;35.53
63916;BME280;50094;51.356;-0.196;2022-11-11T01:01:16;101638.90;;;24.56;35.52
63916;BME280;50094;51.356;-0.196;2022-11-11T01:03:43;101644.84;;;24.47;35.55
63916;BME280;50094;51.356;-0.196;2022-11-11T01:06:11;101651.94;;;24.39;35.58
63916;BME280;50094;51.356;-0.196;2022-11-11T01:08:39;101647.97;;;24.58;35.69
63916;BME280;50094;51.356;-0.196;2022-11-11T01:11:12;101647.72;;;24.46;35.63
63916;BME280;50094;51.356;-0.196;2022-11-11T01:13:40;101647.27;;;24.32;35.74
63916;BME280;50094;51.356;-0.196;2022-11-11T01:16:11;101640.31;;;24.33;35.82
63916;BME280;50094;51.356;-0.196;2022-11-11T01:18:39;101644.21;;;24.36;35.75
63916;BME280;50094;51.356;-0.196;2022-11-11T01:21:10;101641.98;;;24.27;35.88
63916;BME280;50094;51.356;-0.196;2022-11-11T01:23:39;101646.88;;;24.25;35.85
63916;BME280;50094;51.356;-0.196;2022-11-11T01:26:12;101645.68;;;24.27;35.85
63916;BME280;50094;51.356;-0.196;2022-11-11T01:28:40;101647.53;;;24.70;35.97
63916;BME280;50094;51.356;-0.196;2022-11-11T01:31:10;101652.98;;;24.27;35.90
63916;BME280;50094;51.356;-0.196;2022-11-11T01:33:38;101648.44;;;24.25;35.92
63916;BME280;50094;51.356;-0.196;2022-11-11T01:36:08;101654.18;;;24.28;35.98
63916;BME280;50094;51.356;-0.196;2022-11-11T01:38:36;101648.74;;;24.55;36.06
63916;BME280;50094;51.356;-0.196;2022-11-11T01:41:05;101640.87;;;24.29;36.01
63916;BME280;50094;51.356;-0.196;2022-11-11T01:43:33;101643.85;;;24.29;35.96
63916;BME280;50094;51.356;-0.196;2022-11-11T01:46:01;101645.36;;;24.49;36.09
63916;BME280;50094;51.356;-0.196;2022-11-11T01:48:32;101645.12;;;24.24;36.05
63916;BME280;50094;51.356;-0.196;2022-11-11T01:51:01;101642.42;;;24.22;36.05
63916;BME280;50094;51.356;-0.196;2022-11-11T01:53:30;101640.47;;;24.49;36.09
63916;BME280;50094;51.356;-0.196;2022-11-11T01:55:59;101638.95;;;24.28;36.06
63916;BME280;50094;51.356;-0.196;2022-11-11T01:58:27;101636.98;;;24.67;36.09
63916;BME280;50094;51.356;-0.196;2022-11-11T02:00:56;101637.11;;;24.43;36.12
63916;BME280;50094;51.356;-0.196;2022-11-11T02:03:25;101641.07;;;24.41;36.11
63916;BME280;50094;51.356;-0.196;2022-11-11T02:05:53;101641.95;;;24.19;36.12
63916;BME280;50094;51.356;-0.196;2022-11-11T02:08:25;101650.09;;;24.19;36.05
63916;BME280;50094;51.356;-0.196;2022-11-11T02:10:53;101646.61;;;24.21;36.19
63916;BME280;50094;51.356;-0.196;2022-11-11T02:13:20;101643.96;;;24.26;36.10
63916;BME280;50094;51.356;-0.196;2022-11-11T02:15:47;101646.37;;;24.21;36.13
63916;BME280;50094;51.356;-0.196;2022-11-11T02:18:14;101650.62;;;24.19;36.27
63916;BME280;50094;51.356;-0.196;2022-11-11T02:20:43;101648.79;;;24.45;36.11
63916;BME280;50094;51.356;-0.196;2022-11-11T02:23:14;101651.63;;;24.18;36.21
63916;BME280;50094;51.356;-0.196;2022-11-11T02:25:46;101661.42;;;24.43;36.16
63916;BME280;50094;51.356;-0.196;2022-11-11T02:28:16;101662.35;;;24.25;36.12
63916;BME280;50094;51.356;-0.196;2022-11-11T02:30:44;101659.20;;;24.24;36.13
63916;BME280;50094;51.356;-0.196;2022-11-11T02:33:11;101656.42;;;24.28;36.14
63916;BME280;50094;51.356;-0.196;2022-11-11T02:35:41;101658.58;;;24.49;36.13
63916;BME280;50094;51.356;-0.196;2022-11-11T02:38:10;101657.82;;;24.26;36.11
63916;BME280;50094;51.356;-0.196;2022-11-11T02:40:39;101652.23;;;24.47;36.10
63916;BME280;50094;51.356;-0.196;2022-11-11T02:43:07;101651.78;;;24.45;36.15
63916;BME280;50094;51.356;-0.196;2022-11-11T02:45:35;101652.11;;;24.21;36.18
63916;BME280;50094;51.356;-0.196;2022-11-11T02:48:03;101650.23;;;24.26;36.09
63916;BME280;50094;51.356;-0.196;2022-11-11T02:50:30;101655.49;;;24.22;36.19
63916;BME280;50094;51.356;-0.196;2022-11-11T02:52:57;101650.97;;;24.44;36.18
63916;BME280;50094;51.356;-0.196;2022-11-11T02:55:24;101652.40;;;24.25;36.19
63916;BME280;50094;51.356;-0.196;2022-11-11T02:57:52;101648.55;;;24.44;36.19
63916;BME280;50094;51.356;-0.196;2022-11-11T03:00:20;101646.32;;;24.21;36.19
63916;BME280;50094;51.356;-0.196;2022-11-11T03:02:47;101642.65;;;24.23;36.19
63916;BME280;50094;51.356;-0.196;2022-11-11T03:05:15;101640.59;;;24.26;36.16
63916;BME280;50094;51.356;-0.196;2022-11-11T03:07:43;101642.66;;;24.72;36.13
63916;BME280;50094;51.356;-0.196;2022-11-11T03:10:10;101645.32;;;24.26;36.14
63916;BME280;50094;51.356;-0.196;2022-11-11T03:12:38;101649.21;;;24.48;36.13
63916;BME280;50094;51.356;-0.196;2022-11-11T03:15:07;101649.36;;;24.17;36.27
63916;BME280;50094;51.356;-0.196;2022-11-11T03:17:34;101644.52;;;24.23;36.21
63916;BME280;50094;51.356;-0.196;2022-11-11T03:20:01;101642.98;;;24.27;36.15
63916;BME280;50094;51.356;-0.196;2022-11-11T03:22:29;101640.16;;;24.69;36.17
63916;BME280;50094;51.356;-0.196;2022-11-11T03:24:56;101634.61;;;24.23;36.24
63916;BME280;50094;51.356;-0.196;2022-11-11T03:27:23;101633.08;;;24.27;36.15
63916;BME280;50094;51.356;-0.196;2022-11-11T03:29:50;101637.13;;;24.24;36.15
63916;BME280;50094;51.356;-0.196;2022-11-11T03:32:17;101637.11;;;24.26;36.21
63916;BME280;50094;51.356;-0.196;2022-11-11T03:34:45;101632.95;;;24.46;36.14
63916;BME280;50094;51.356;-0.196;2022-11-11T03:37:12;101634.62;;;24.27;36.21
63916;BME280;50094;51.356;-0.196;2022-11-11T03:39:39;101629.71;;;24.21;36.18
63916;BME280;50094;51.356;-0.196;2022-11-11T03:42:05;101628.03;;;24.40;36.22
63916;BME280;50094;51.356;-0.196;2022-11-11T03:44:32;101632.38;;;24.17;36.21
63916;BME280;50094;51.356;-0.196;2022-11-11T03:46:59;101630.01;;;24.38;36.25
63916;BME280;50094;51.356;-0.196;2022-11-11T03:49:26;101623.57;;;24.43;36.24
63916;BME280;50094;51.356;-0.196;2022-11-11T03:51:53;101626.73;;;24.63;36.22
63916;BME280;50094;51.356;-0.196;2022-11-11T03:54:20;101627.04;;;24.37;36.36
63916;BME280;50094;51.356;-0.196;2022-11-11T03:56:46;101633.36;;;24.35;36.35
63916;BME280;50094;51.356;-0.196;2022-11-11T03:59:14;101634.13;;;24.32;36.39
63916;BME280;50094;51.356;-0.196;2022-11-11T04:01:41;101635.03;;;24.10;36.39
63916;BME280;50094;51.356;-0.196;2022-11-11T04:04:08;101634.79;;;24.65;36.27
63916;BME280;50094;51.356;-0.196;2022-11-11T04:06:36;101636.72;;;24.14;36.32
63916;BME280;50094;51.356;-0.196;2022-11-11T04:09:06;101638.09;;;24.14;36.35
63916;BME280;50094;51.356;-0.196;2022-11-11T04:11:36;101640.86;;;24.17;36.31
63916;BME280;50094;51.356;-0.196;2022-11-11T04:14:08;101640.00;;;24.22;36.20
63916;BME280;50094;51.356;-0.196;2022-11-11T04:16:35;101633.61;;;24.18;36.21
63916;BME280;50094;51.356;-0.196;2022-11-11T04:19:03;101637.36;;;24.22;36.22
63916;BME280;50094;51.356;-0.196;2022-11-11T04:21:30;101641.26;;;24.19;36.24
63916;BME280;50094;51.356;-0.196;2022-11-11T04:23:57;101641.52;;;24.14;36.31
63916;BME280;50094;51.356;-0.196;2022-11-11T04:26:24;101638.11;;;24.23;36.22
63916;BME280;50094;51.356;-0.196;2022-11-11T04:28:52;101638.72;;;24.19;36.20
63916;BME280;50094;51.356;-0.196;2022-11-11T04:31:20;101640.15;;;24.42;36.15
63916;BME280;50094;51.356;-0.196;2022-11-11T04:33:46;101640.59;;;24.62;36.18
63916;BME280;50094;51.356;-0.196;2022-11-11T04:36:14;101637.80;;;24.13;36.18
63916;BME280;50094;51.356;-0.196;2022-11-11T04:38:41;101637.38;;;24.22;36.15
63916;BME280;50094;51.356;-0.196;2022-11-11T04:41:09;101632.63;;;24.28;36.08
63916;BME280;50094;51.356;-0.196;2022-11-11T04:43:36;101633.19;;;24.23;36.12
63916;BME280;50094;51.356;-0.196;2022-11-11T04:46:03;101641.63;;;24.21;36.12
63916;BME280;50094;51.356;-0.196;2022-11-11T04:48:30;101641.75;;;24.40;36.21
63916;BME280;50094;51.356;-0.196;2022-11-11T04:50:58;101643.71;;;24.18;36.27
63916;BME280;50094;51.356;-0.196;2022-11-11T04:53:25;101645.28;;;24.41;36.26
63916;BME280;50094;51.356;-0.196;2022-11-11T04:55:52;101642.76;;;24.15;36.25
63916;BME280;50094;51.356;-0.196;2022-11-11T04:58:20;101647.15;;;24.40;36.22
63916;BME280;50094;51.356;-0.196;2022-11-11T05:00:48;101642.42;;;24.42;36.22
63916;BME280;50094;51.356;-0.196;2022-11-11T05:03:16;101646.76;;;24.21;36.24
63916;BME280;50094;51.356;-0.196;2022-11-11T05:05:46;101640.37;;;24.46;36.25
63916;BME280;50094;51.356;-0.196;2022-11-11T05:08:14;101642.53;;;24.38;36.28
63916;BME280;50094;51.356;-0.196;2022-11-11T05:10:41;101648.02;;;24.59;36.24
63916;BME280;50094;51.356;-0.196;2022-11-11T05:13:08;101647.37;;;24.38;36.23
63916;BME280;50094;51.356;-0.196;2022-11-11T05:15:35;101643.52;;;24.58;36.26
63916;BME280;50094;51.356;-0.196;2022-11-11T05:18:03;101646.34;;;24.16;36.29
63916;BME280;50094;51.356;-0.196;2022-11-11T05:20:30;101642.86;;;24.63;36.28
63916;BME280;50094;51.356;-0.196;2022-11-11T05:22:57;101644.28;;;24.16;36.22
63916;BME280;50094;51.356;-0.196;2022-11-11T05:25:24;101649.04;;;24.15;36.21
63916;BME280;50094;51.356;-0.196;2022-11-11T05:27:52;101649.88;;;24.10;36.24
63916;BME280;50094;51.356;-0.196;2022-11-11T05:30:21;101645.41;;;24.18;36.17
63916;BME280;50094;51.356;-0.196;2022-11-11T05:32:48;101645.89;;;24.38;36.25
63916;BME280;50094;51.356;-0.196;2022-11-11T05:35:17;101645.43;;;24.16;36.35
63916;BME280;50094;51.356;-0.196;2022-11-11T05:37:45;101645.50;;;24.35;36.41
63916;BME280;50094;51.356;-0.196;2022-11-11T05:40:12;101641.67;;;24.24;36.34
63916;BME280;50094;51.356;-0.196;2022-11-11T05:42:40;101637.01;;;24.27;36.36
63916;BME280;50094;51.356;-0.196;2022-11-11T05:45:09;101637.51;;;24.27;36.33
63916;BME280;50094;51.356;-0.196;2022-11-11T05:47:36;101640.28;;;24.25;36.39
63916;BME280;50094;51.356;-0.196;2022-11-11T05:50:03;101650.48;;;24.19;36.46
63916;BME280;50094;51.356;-0.196;2022-11-11T05:52:31;101645.89;;;24.17;36.51
63916;BME280;50094;51.356;-0.196;2022-11-11T05:54:58;101645.87;;;24.27;36.48
63916;BME280;50094;51.356;-0.196;2022-11-11T05:57:24;101650.35;;;24.27;36.50
63916;BME280;50094;51.356;-0.196;2022-11-11T05:59:52;101647.37;;;24.51;36.54
63916;BME280;50094;51.356;-0.196;2022-11-11T06:02:20;101651.97;;;24.30;36.57
63916;BME280;50094;51.356;-0.196;2022-11-11T06:04:47;101653.28;;;24.59;36.55
63916;BME280;50094;51.356;-0.196;2022-11-11T06:07:14;101649.17;;;24.39;36.55
63916;BME280;50094;51.356;-0.196;2022-11-11T06:09:42;101651.02;;;24.41;36.62
63916;BME280;50094;51.356;-0.196;2022-11-11T06:12:09;101654.32;;;24.38;36.65
63916;BME280;50094;51.356;-0.196;2022-11-11T06:14:37;101654.99;;;24.44;36.63
63916;BME280;50094;51.356;-0.196;2022-11-11T06:17:03;101660.91;;;24.18;36.64
63916;BME280;50094;51.356;-0.196;2022-11-11T06:19:31;101659.43;;;24.59;36.56
63916;BME280;50094;51.356;-0.196;2022-11-11T06:21:59;101665.89;;;24.46;36.79
63916;BME280;50094;51.356;-0.196;2022-11-11T06:24:26;101667.19;;;24.78;36.70
63916;BME280;50094;51.356;-0.196;2022-11-11T06:26:54;101670.64;;;24.50;37.06
63916;BME280;50094;51.356;-0.196;2022-11-11T06:29:21;101674.48;;;24.38;36.91
63916;BME280;50094;51.356;-0.196;2022-11-11T06:31:48;101678.29;;;24.70;36.85
63916;BME280;50094;51.356;-0.196;2022-11-11T06:34:16;101685.16;;;24.70;36.82
63916;BME280;50094;51.356;-0.196;2022-11-11T06:36:43;101683.16;;;24.70;36.77
63916;BME280;50094;51.356;-0.196;2022-11-11T06:39:11;101683.10;;;24.83;36.63
63916;BME280;50094;51.356;-0.196;2022-11-11T06:41:38;101682.36;;;24.80;36.59
63916;BME280;50094;51.356;-0.196;2022-11-11T06:44:05;101680.47;;;24.51;36.59
63916;BME280;50094;51.356;-0.196;2022-11-11T06:46:32;101684.30;;;24.78;36.58
63916;BME280;50094;51.356;-0.196;2022-11-11T06:48:59;101686.74;;;24.74;36.57
63916;BME280;50094;51.356;-0.196;2022-11-11T06:51:27;101684.28;;;24.73;36.52
63916;BME280;50094;51.356;-0.196;2022-11-11T06:53:54;101691.62;;;24.77;36.48
63916;BME280;50094;51.356;-0.196;2022-11-11T06:56:21;101689.75;;;24.69;36.55
63916;BME280;50094;51.356;-0.196;2022-11-11T06:58:48;101694.85;;;24.64;36.57
63916;BME280;50094;51.356;-0.196;2022-11-11T07:01:15;101696.66;;;24.68;36.58
63916;BME280;50094;51.356;-0.196;2022-11-11T07:03:43;101695.60;;;24.67;36.60
63916;BME280;50094;51.356;-0.196;2022-11-11T07:06:10;101693.75;;;24.69;36.52
63916;BME280;50094;51.356;-0.196;2022-11-11T07:08:38;101691.18;;;24.62;36.64
63916;BME280;50094;51.356;-0.196;2022-11-11T07:11:05;101698.44;;;24.62;36.70
63916;BME280;50094;51.356;-0.196;2022-11-11T07:13:33;101698.14;;;24.61;36.65
63916;BME280;50094;51.356;-0.196;2022-11-11T07:16:00;101704.45;;;24.34;36.65
63916;BME280;50094;51.356;-0.196;2022-11-11T07:18:27;101706.08;;;24.34;36.56
63916;BME280;50094;51.356;-0.196;2022-11-11T07:20:54;101704.88;;;24.66;36.49
63916;BME280;50094;51.356;-0.196;2022-11-11T07:23:21;101708.03;;;24.60;36.54
63916;BME280;50094;51.356;-0.196;2022-11-11T07:25:49;101709.39;;;24.63;36.47
63916;BME280;50094;51.356;-0.196;2022-11-11T07:28:16;101713.15;;;24.36;36.43
63916;BME280;50094;51.356;-0.196;2022-11-11T07:30:43;101715.96;;;24.61;36.47
63916;BME280;50094;51.356;-0.196;2022-11-11T07:33:11;101717.51;;;24.61;36.43
63916;BME280;50094;51.356;-0.196;2022-11-11T07:35:37;101717.85;;;24.55;36.41
63916;BME280;50094;51.356;-0.196;2022-11-11T07:38:04;101721.22;;;24.27;36.43
63916;BME280;50094;51.356;-0.196;2022-11-11T07:40:31;101724.72;;;24.53;36.48
63916;BME280;50094;51.356;-0.196;2022-11-11T07:42:59;101727.05;;;24.54;36.49
63916;BME280;50094;51.356;-0.196;2022-11-11T07:45:27;101728.45;;;24.61;36.41
63916;BME280;50094;51.356;-0.196;2022-11-11T07:47:54;101730.25;;;24.56;36.44
63916;BME280;50094;51.356;-0.196;2022-11-11T07:50:21;101734.63;;;24.38;36.44
63916;BME280;50094;51.356;-0.196;2022-11-11T07:52:49;101736.73;;;24.57;36.47
63916;BME280;50094;51.356;-0.196;2022-11-11T07:55:17;101739.10;;;24.63;36.39
63916;BME280;50094;51.356;-0.196;2022-11-11T07:57:44;101748.70;;;24.56;36.54
63916;BME280;50094;51.356;-0.196;2022-11-11T08:00:12;101752.05;;;24.51;36.49
63916;BME280;50094;51.356;-0.196;2022-11-11T08:02:40;101744.74;;;24.63;36.40
63916;BME280;50094;51.356;-0.196;2022-11-11T08:05:12;101751.59;;;24.34;36.45
63916;BME280;50094;51.356;-0.196;2022-11-11T08:07:39;101753.49;;;24.66;36.38
63916;BME280;50094;51.356;-0.196;2022-11-11T08:10:07;101757.04;;;24.59;36.39
63916;BME280;50094;51.356;-0.196;2022-11-11T08:12:34;101764.26;;;24.53;36.48
63916;BME280;50094;51.356;-0.196;2022-11-11T08:15:01;101767.99;;;24.57;36.47
63916;BME280;50094;51.356;-0.196;2022-11-11T08:17:29;101773.46;;;24.57;36.47
63916;BME280;50094;51.356;-0.196;2022-11-11T08:19:56;101773.85;;;24.60;36.46
63916;BME280;50094;51.356;-0.196;2022-11-11T08:22:23;101773.42;;;24.60;36.44
63916;BME280;50094;51.356;-0.196;2022-11-11T08:24:51;101777.18;;;24.52;36.60
63916;BME280;50094;51.356;-0.196;2022-11-11T08:27:18;101783.38;;;24.58;36.46
63916;BME280;50094;51.356;-0.196;2022-11-11T08:29:45;101782.87;;;24.64;36.37
63916;BME280;50094;51.356;-0.196;2022-11-11T08:32:13;101779.67;;;24.57;36.39
63916;BME280;50094;51.356;-0.196;2022-11-11T08:34:41;101782.02;;;24.54;36.47
63916;BME280;50094;51.356;-0.196;2022-11-11T08:37:08;101789.36;;;24.53;36.46
63916;BME280;50094;51.356;-0.196;2022-11-11T08:39:34;101789.58;;;24.22;36.59
63916;BME280;50094;51.356;-0.196;2022-11-11T08:42:01;101789.26;;;24.56;36.52
63916;BME280;50094;51.356;-0.196;2022-11-11T08:44:29;101785.28;;;24.58;36.51
63916;BME280;50094;51.356;-0.196;2022-11-11T08:46:56;101786.97;;;24.56;36.46
63916;BME280;50094;51.356;-0.196;2022-11-11T08:49:23;101787.04;;;25.06;36.46
63916;BME280;50094;51.356;-0.196;2022-11-11T08:51:50;101792.86;;;24.68;36.36
63916;BME280;50094;51.356;-0.196;2022-11-11T08:54:17;101796.01;;;24.61;36.46
63916;BME280;50094;51.356;-0.196;2022-11-11T08:56:45;101799.90;;;24.55;36.49
63916;BME280;50094;51.356;-0.196;2022-11-11T08:59:12;101794.58;;;24.59;36.50
63916;BME280;50094;51.356;-0.196;2022-11-11T09:01:39;101794.82;;;24.64;36.43
63916;BME280;50094;51.356;-0.196;2022-11-11T09:04:06;101797.71;;;24.70;36.42
63916;BME280;50094;51.356;-0.196;2022-11-11T09:06:33;101797.88;;;24.60;36.51
63916;BME280;50094;51.356;-0.196;2022-11-11T09:09:01;101792.30;;;24.67;36.44
63916;BME280;50094;51.356;-0.196;2022-11-11T09:11:29;101798.07;;;24.49;36.35
63916;BME280;50094;51.356;-0.196;2022-11-11T09:13:57;101800.62;;;24.83;36.37
63916;BME280;50094;51.356;-0.196;2022-11-11T09:16:24;101804.94;;;24.82;36.37
63916;BME280;50094;51.356;-0.196;2022-11-11T09:18:52;101806.31;;;24.86;36.32
63916;BME280;50094;51.356;-0.196;2022-11-11T09:21:19;101813.09;;;24.60;36.27
63916;BME280;50094;51.356;-0.196;2022-11-11T09:23:47;101811.51;;;24.62;36.25
63916;BME280;50094;51.356;-0.196;2022-11-11T09:26:14;101815.90;;;24.61;36.20
63916;BME280;50094;51.356;-0.196;2022-11-11T09:28:41;101822.64;;;24.35;36.23
63916;BME280;50094;51.356;-0.196;2022-11-11T09:31:09;101820.54;;;24.87;36.22
63916;BME280;50094;51.356;-0.196;2022-11-11T09:33:36;101828.65;;;24.76;36.11
63916;BME280;50094;51.356;-0.196;2022-11-11T09:36:04;101825.46;;;24.73;36.11
63916;BME280;50094;51.356;-0.196;2022-11-11T09:38:31;101834.25;;;24.99;36.11
63916;BME280;50094;51.356;-0.196;2022-11-11T09:41:10;101829.15;;;24.95;36.15
63916;BME280;50094;51.356;-0.196;2022-11-11T09:43:45;101831.90;;;24.99;36.04
63916;BME280;50094;51.356;-0.196;2022-11-11T09:46:20;101829.42;;;24.73;36.04
63916;BME280;50094;51.356;-0.196;2022-11-11T09:49:35;101837.67;;;24.83;35.95
63916;BME280;50094;51.356;-0.196;2022-11-11T09:52:09;101842.26;;;24.59;35.89
63916;BME280;50094;51.356;-0.196;2022-11-11T09:54:44;101848.56;;;24.81;35.89
63916;BME280;50094;51.356;-0.196;2022-11-11T09:57:20;101859.01;;;25.06;35.95
63916;BME280;50094;51.356;-0.196;2022-11-11T09:59:52;101859.47;;;24.89;35.84
63916;BME280;50094;51.356;-0.196;2022-11-11T10:02:28;101859.89;;;24.89;35.81
63916;BME280;50094;51.356;-0.196;2022-11-11T10:05:00;101866.40;;;24.91;35.81
63916;BME280;50094;51.356;-0.196;2022-11-11T10:07:34;101868.38;;;24.92;35.80
63916;BME280;50094;51.356;-0.196;2022-11-11T10:10:13;101878.24;;;24.66;35.82
63916;BME280;50094;51.356;-0.196;2022-11-11T10:12:48;101876.35;;;24.85;35.85
63916;BME280;50094;51.356;-0.196;2022-11-11T10:15:17;101883.64;;;24.90;35.82
63916;BME280;50094;51.356;-0.196;2022-11-11T10:17:54;101884.57;;;25.06;36.01
63916;BME280;50094;51.356;-0.196;2022-11-11T10:20:30;101891.69;;;24.75;36.06
63916;BME280;50094;51.356;-0.196;2022-11-11T10:23:02;101894.72;;;24.73;36.01
63916;BME280;50094;51.356;-0.196;2022-11-11T10:25:30;101896.32;;;24.74;35.98
63916;BME280;50094;51.356;-0.196;2022-11-11T10:28:00;101897.33;;;24.94;36.09
63916;BME280;50094;51.356;-0.196;2022-11-11T10:30:30;101904.02;;;24.90;36.10
63916;BME280;50094;51.356;-0.196;2022-11-11T10:33:00;101902.26;;;24.65;36.09
63916;BME280;50094;51.356;-0.196;2022-11-11T10:35:30;101899.08;;;25.01;35.99
63916;BME280;50094;51.356;-0.196;2022-11-11T10:38:10;101905.23;;;24.75;36.01
63916;BME280;50094;51.356;-0.196;2022-11-11T10:40:45;101912.05;;;24.39;36.11
63916;BME280;50094;51.356;-0.196;2022-11-11T10:43:22;101914.63;;;25.23;36.21
63916;BME280;50094;51.356;-0.196;2022-11-11T10:45:57;101920.44;;;24.74;36.24
63916;BME280;50094;51.356;-0.196;2022-11-11T10:48:35;101917.22;;;24.66;36.33
63916;BME280;50094;51.356;-0.196;2022-11-11T10:51:05;101919.24;;;24.70;36.30
63916;BME280;50094;51.356;-0.196;2022-11-11T10:53:38;101921.74;;;24.68;36.33
63916;BME280;50094;51.356;-0.196;2022-11-11T10:56:15;101920.47;;;24.65;36.35
63916;BME280;50094;51.356;-0.196;2022-11-11T10:58:47;101918.20;;;24.66;36.36
63916;BME280;50094;51.356;-0.196;2022-11-11T11:01:24;101915.68;;;24.67;36.40
63916;BME280;50094;51.356;-0.196;2022-11-11T11:03:58;101915.08;;;24.90;36.43
63916;BME280;50094;51.356;-0.196;2022-11-11T11:06:29;101909.91;;;24.38;36.43
63916;BME280;50094;51.356;-0.196;2022-11-11T11:09:01;101913.72;;;24.70;36.39
63916;BME280;50094;51.356;-0.196;2022-11-11T11:11:37;101910.57;;;24.72;36.38
63916;BME280;50094;51.356;-0.196;2022-11-11T11:14:11;101910.23;;;24.74;36.35
63916;BME280;50094;51.356;-0.196;2022-11-11T11:16:46;101912.41;;;24.71;36.48
63916;BME280;50094;51.356;-0.196;2022-11-11T11:19:17;101909.86;;;24.44;36.44
63916;BME280;50094;51.356;-0.196;2022-11-11T11:21:54;101905.20;;;24.69;36.43
63916;BME280;50094;51.356;-0.196;2022-11-11T11:24:23;101904.02;;;24.68;36.49
63916;BME280;50094;51.356;-0.196;2022-11-11T11:26:53;101904.14;;;24.69;36.47
63916;BME280;50094;51.356;-0.196;2022-11-11T11:29:31;101908.35;;;24.52;36.38
63916;BME280;50094;51.356;-0.196;2022-11-11T11:32:12;101909.05;;;24.58;36.34
63916;BME280;50094;51.356;-0.196;2022-11-11T11:34:46;101908.35;;;24.87;36.30
63916;BME280;50094;51.356;-0.196;2022-11-11T11:37:14;101902.27;;;24.76;36.48
63916;BME280;50094;51.356;-0.196;2022-11-11T11:39:41;101896.46;;;24.79;36.38
63916;BME280;50094;51.356;-0.196;2022-11-11T11:42:27;101900.01;;;24.69;36.45
63916;BME280;50094;51.356;-0.196;2022-11-11T11:44:55;101909.72;;;24.71;36.48
63916;BME280;50094;51.356;-0.196;2022-11-11T11:47:33;101909.44;;;24.82;36.37
63916;BME280;50094;51.356;-0.196;2022-11-11T11:50:20;101913.90;;;24.82;36.40
63916;BME280;50094;51.356;-0.196;2022-11-11T11:52:58;101907.57;;;24.91;36.30
63916;BME280;50094;51.356;-0.196;2022-11-11T11:55:32;101909.61;;;24.81;36.37
63916;BME280;50094;51.356;-0.196;2022-11-11T11:58:17;101910.33;;;24.82;36.34
63916;BME280;50094;51.356;-0.196;2022-11-11T12:01:03;101913.29;;;24.60;36.30
63916;BME280;50094;51.356;-0.196;2022-11-11T12:03:54;101920.25;;;24.85;36.32
63916;BME280;50094;51.356;-0.196;2022-11-11T12:06:33;101919.25;;;24.89;36.31
63916;BME280;50094;51.356;-0.196;2022-11-11T12:09:11;101915.15;;;24.68;36.25
63916;BME280;50094;51.356;-0.196;2022-11-11T12:11:49;101917.41;;;24.68;36.23
63916;BME280;50094;51.356;-0.196;2022-11-11T12:14:38;101910.94;;;24.69;36.25
63916;BME280;50094;51.356;-0.196;2022-11-11T12:17:18;101907.91;;;24.73;36.16
63916;BME280;50094;51.356;-0.196;2022-11-11T12:19:59;101901.42;;;24.72;36.20
63916;BME280;50094;51.356;-0.196;2022-11-11T12:22:39;101903.14;;;24.98;36.24
63916;BME280;50094;51.356;-0.196;2022-11-11T12:25:17;101909.82;;;24.48;36.23
63916;BME280;50094;51.356;-0.196;2022-11-11T12:27:55;101911.73;;;25.05;36.12
63916;BME280;50094;51.356;-0.196;2022-11-11T12:30:25;101909.18;;;24.98;36.23
63916;BME280;50094;51.356;-0.196;2022-11-11T12:33:19;101910.02;;;24.92;36.28
63916;BME280;50094;51.356;-0.196;2022-11-11T12:36:00;101908.92;;;24.92;36.28
63916;BME280;50094;51.356;-0.196;2022-11-11T12:38:57;101906.96;;;24.70;36.22
63916;BME280;50094;51.356;-0.196;2022-11-11T12:41:28;101903.41;;;24.84;36.15
63916;BME280;50094;51.356;-0.196;2022-11-11T12:44:04;101905.32;;;24.81;36.16
63916;BME280;50094;51.356;-0.196;2022-11-11T12:46:41;101903.90;;;24.82;36.12
63916;BME280;50094;51.356;-0.196;2022-11-11T12:49:30;101906.20;;;25.09;36.14
63916;BME280;50094;51.356;-0.196;2022-11-11T12:52:10;101909.20;;;24.80;36.11
63916;BME280;50094;51.356;-0.196;2022-11-11T12:54:53;101911.77;;;24.80;36.09